Summerville, Texas
Current Conditions -  °F | °C
As of 6:15 PM on Thursday 27 Nov 2014 (Local Time) from KT20 Reporting Station
Clear Clear  
Wind Chill: 57°   Ceiling: Unl
Heat Index: 57°   Visibility: 10mi
Dew Point: 36°   Wind: 3mph
Humidity: 45%   Direction: 90°E
Pressure: 30.4"   Gusts: NA
Location:  29.481°N, 97.4305°W
Report Text: KT20 280015Z AUTO 09003KT 10SM CLR 14/02 A3040 RMK AO2 T01410022
Loading
Personal Weather Stations






























Interactive Weather Map New forecast layout! Learn more

10-Day Weather Forecast

Advertisements
Track Severe Weather on mobile